EKSB/SGD METAR and TAF weather

Enter ICAO airport designator
Station Type Date Time Source
EKSB METAR 2022/09/26 10:21 UTC NOAA

EKSB 261021Z 19011G21KT 160V230 9999 -RA BKN015 12/10 Q0996


Station Type Date Time Source
EKSB Decoded METAR 2022/09/26 10:21 UTC NOAA

Soenderborg Lufthavn, Denmark (EKSB) 54-58N 009-47E 14M
Sep 26, 2022 - 06:21 AM EDT / 2022.09.26 1021 UTC
Wind: from the S (190 degrees) at 13 MPH (11 KT) gusting to 24 MPH (21 KT) (direction variable):0
Visibility: greater than 7 mile(s):0
Sky conditions: mostly cloudy
Weather: light rain
Temperature: 53 F (12 C)
Dew Point: 50 F (10 C)
Relative Humidity: 87%
Pressure (altimeter): 29.41 in. Hg (0996 hPa)
ob: EKSB 261021Z 19011G21KT 160V230 9999 -RA BKN015 12/10 Q0996
cycle: 10

Station Type Date Time Source
EKSB TAF 2016/01/27 09:03 UTC NOAA

TAF TAF EKSB 270856Z 2709/2721 23022KT 5000 -RA BR BKN008
TEMPO 2709/2721 24025G40KT 2000 RADZ BKN004

Example: see airport list